createdAt,value
2023-05-06T00:01:19.512Z,93.34
2023-05-06T00:03:46.436Z,93.66
2023-05-06T00:06:15.621Z,93.95
2023-05-06T00:08:42.258Z,93.87
2023-05-06T00:11:08.777Z,93.87
2023-05-06T00:13:35.255Z,93.59
2023-05-06T00:16:01.654Z,93.87
2023-05-06T00:18:28.438Z,93.58
2023-05-06T00:20:57.240Z,93.16
2023-05-06T00:23:26.785Z,93.36
2023-05-06T00:25:55.867Z,92.90
2023-05-06T00:28:22.227Z,92.66
2023-05-06T00:30:48.636Z,92.46
2023-05-06T00:33:15.149Z,92.73
2023-05-06T00:35:41.550Z,92.90
2023-05-06T00:38:10.873Z,92.44
2023-05-06T00:40:37.809Z,92.87
2023-05-06T00:43:04.406Z,93.39
2023-05-06T00:45:31.534Z,92.92
2023-05-06T00:47:58.784Z,92.32
2023-05-06T00:50:28.048Z,92.43
2023-05-06T00:52:54.658Z,92.25
2023-05-06T00:55:22.221Z,92.57
2023-05-06T00:57:51.867Z,92.83
2023-05-06T01:00:25.041Z,93.06
2023-05-06T01:02:52.526Z,93.32
2023-05-06T01:05:22.157Z,93.23
2023-05-06T01:08:00.525Z,93.47
2023-05-06T01:10:41.938Z,93.07
2023-05-06T01:13:15.380Z,93.42
2023-05-06T01:15:46.947Z,93.21
2023-05-06T01:18:17.863Z,93.00
2023-05-06T01:20:49.766Z,92.58
2023-05-06T01:23:17.130Z,92.52
2023-05-06T01:25:43.691Z,93.61
2023-05-06T01:28:11.984Z,93.21
2023-05-06T01:30:46.196Z,93.26
2023-05-06T01:33:33.321Z,93.67
2023-05-06T01:36:05.220Z,93.45
2023-05-06T01:38:50.591Z,93.08
2023-05-06T01:41:18.720Z,92.50
2023-05-06T01:43:47.391Z,92.61
2023-05-06T01:46:17.843Z,92.54
2023-05-06T01:48:46.381Z,92.32
2023-05-06T01:51:12.879Z,92.61
2023-05-06T01:53:39.200Z,92.81
2023-05-06T01:56:05.914Z,93.08
2023-05-06T01:58:32.462Z,93.68
2023-05-06T02:00:58.844Z,93.53
2023-05-06T02:03:25.685Z,92.96
2023-05-06T02:05:52.173Z,92.21
2023-05-06T02:08:18.607Z,92.12
2023-05-06T02:10:45.322Z,92.59
2023-05-06T02:13:12.162Z,92.56
2023-05-06T02:15:41.623Z,91.98
2023-05-06T02:18:08.474Z,91.61
2023-05-06T02:20:34.878Z,92.42
2023-05-06T02:23:01.252Z,92.53
2023-05-06T02:25:27.797Z,93.11
2023-05-06T02:27:58.844Z,93.20
2023-05-06T02:30:25.251Z,92.85
2023-05-06T02:32:54.793Z,93.07
2023-05-06T02:35:21.312Z,92.42
2023-05-06T02:37:47.667Z,93.15
2023-05-06T02:40:14.204Z,93.14
2023-05-06T02:42:40.651Z,92.96
2023-05-06T02:45:08.024Z,92.93
2023-05-06T02:47:34.775Z,93.01
2023-05-06T02:50:01.228Z,93.15
2023-05-06T02:52:27.715Z,92.80
2023-05-06T02:54:54.083Z,92.81
2023-05-06T02:57:20.455Z,92.63
2023-05-06T02:59:46.944Z,93.20
2023-05-06T03:02:13.382Z,93.27
2023-05-06T03:04:39.883Z,92.99
2023-05-06T03:07:06.488Z,93.14
2023-05-06T03:09:35.679Z,92.80
2023-05-06T03:12:02.211Z,92.96
2023-05-06T03:14:28.578Z,92.89
2023-05-06T03:16:57.759Z,93.54
2023-05-06T03:19:26.898Z,93.58
2023-05-06T03:21:53.448Z,93.07
2023-05-06T03:24:20.291Z,93.60
2023-05-06T03:26:51.683Z,94.36
2023-05-06T03:29:18.052Z,94.30
2023-05-06T03:31:44.484Z,94.17
2023-05-06T03:34:13.273Z,94.04
2023-05-06T03:36:39.616Z,94.62
2023-05-06T03:39:05.996Z,94.87
2023-05-06T03:41:32.361Z,94.39
2023-05-06T03:43:58.874Z,94.15
2023-05-06T03:46:25.267Z,93.96
2023-05-06T03:48:54.051Z,94.08
2023-05-06T03:51:20.526Z,93.82
2023-05-06T03:53:47.003Z,93.71
2023-05-06T03:56:13.545Z,94.05
2023-05-06T03:58:40.060Z,93.59
2023-05-06T04:01:06.543Z,93.45
2023-05-06T04:03:32.966Z,93.59
2023-05-06T04:05:59.383Z,93.72
2023-05-06T04:08:28.370Z,93.46
2023-05-06T04:10:55.242Z,93.36
2023-05-06T04:13:21.695Z,93.35
2023-05-06T04:15:49.028Z,93.60
2023-05-06T04:18:19.193Z,93.45
2023-05-06T04:20:48.022Z,92.40
2023-05-06T04:23:15.298Z,92.98
2023-05-06T04:25:42.733Z,93.55
2023-05-06T04:28:11.219Z,93.36
2023-05-06T04:30:37.868Z,93.45
2023-05-06T04:33:04.415Z,93.36
2023-05-06T04:35:31.106Z,93.30
2023-05-06T04:37:57.534Z,93.48
2023-05-06T04:40:26.218Z,93.07
2023-05-06T04:42:52.772Z,92.85
2023-05-06T04:45:19.566Z,92.90
2023-05-06T04:47:46.297Z,93.09
2023-05-06T04:50:12.969Z,93.52
2023-05-06T04:52:41.997Z,93.72
2023-05-06T04:55:09.118Z,94.00
2023-05-06T04:57:35.794Z,93.53
2023-05-06T05:00:02.315Z,93.53
2023-05-06T05:02:31.350Z,93.57
2023-05-06T05:04:57.895Z,93.54
2023-05-06T05:07:24.398Z,93.09
2023-05-06T05:09:50.757Z,93.54
2023-05-06T05:12:17.136Z,93.66
2023-05-06T05:14:47.271Z,93.56
2023-05-06T05:17:13.755Z,92.78
2023-05-06T05:19:40.954Z,93.10
2023-05-06T05:22:07.309Z,92.88
2023-05-06T05:24:33.860Z,93.37
2023-05-06T05:27:00.233Z,93.02
2023-05-06T05:29:26.576Z,92.89
2023-05-06T05:31:53.005Z,92.88
2023-05-06T05:34:19.444Z,93.03
2023-05-06T05:36:45.957Z,92.89
2023-05-06T05:39:12.312Z,92.71
2023-05-06T05:41:38.663Z,92.40
2023-05-06T05:44:05.025Z,91.94
2023-05-06T05:46:31.594Z,91.97
2023-05-06T05:48:58.143Z,91.70
2023-05-06T05:51:25.820Z,91.16
2023-05-06T05:53:54.622Z,91.17
2023-05-06T05:56:21.183Z,91.16
2023-05-06T05:58:47.873Z,90.00
2023-05-06T06:01:14.631Z,90.28
2023-05-06T06:03:42.111Z,90.50
2023-05-06T06:06:09.463Z,90.23
2023-05-06T06:08:36.068Z,89.14
2023-05-06T06:11:04.356Z,89.34
2023-05-06T06:13:31.287Z,89.45
2023-05-06T06:15:58.068Z,88.31
2023-05-06T06:18:24.691Z,86.40
2023-05-06T06:20:53.881Z,87.42
2023-05-06T06:23:20.953Z,88.96
2023-05-06T06:25:47.463Z,88.27
2023-05-06T06:28:13.952Z,87.49
2023-05-06T06:30:44.015Z,85.68
2023-05-06T06:33:10.471Z,85.81
2023-05-06T06:35:36.889Z,85.20
2023-05-06T06:38:03.250Z,86.61
2023-05-06T06:40:29.759Z,84.97
2023-05-06T06:42:59.242Z,83.05
2023-05-06T06:45:28.375Z,84.92
2023-05-06T06:47:57.262Z,84.41
2023-05-06T06:50:28.359Z,81.80
2023-05-06T06:52:57.005Z,83.13
2023-05-06T06:55:25.970Z,82.50
2023-05-06T06:57:52.356Z,82.71
2023-05-06T07:00:19.130Z,82.37
2023-05-06T07:02:48.555Z,83.10
2023-05-06T07:05:18.251Z,83.79
2023-05-06T07:07:44.594Z,83.04
2023-05-06T07:10:11.160Z,81.97
2023-05-06T07:12:37.886Z,81.87
2023-05-06T07:15:06.842Z,81.18
2023-05-06T07:17:33.659Z,78.72
2023-05-06T07:20:02.300Z,80.19
2023-05-06T07:22:29.534Z,78.51
2023-05-06T07:24:55.912Z,76.70
2023-05-06T07:27:22.778Z,77.98
2023-05-06T07:29:49.253Z,75.67
2023-05-06T07:32:15.928Z,75.14
2023-05-06T07:34:44.739Z,76.64
2023-05-06T07:37:13.988Z,77.08
2023-05-06T07:39:43.596Z,74.91
2023-05-06T07:42:13.117Z,75.14
2023-05-06T07:44:42.096Z,74.94
2023-05-06T07:47:10.927Z,75.02
2023-05-06T07:49:37.428Z,72.75
2023-05-06T07:52:04.115Z,70.76
2023-05-06T07:54:31.803Z,69.71
2023-05-06T07:56:58.356Z,70.93
2023-05-06T07:59:24.812Z,71.35
2023-05-06T08:01:53.840Z,68.06
2023-05-06T08:04:20.495Z,69.14
2023-05-06T08:06:52.094Z,68.04
2023-05-06T08:09:23.069Z,66.98
2023-05-06T08:11:50.642Z,72.52
2023-05-06T08:14:17.034Z,69.05
2023-05-06T08:16:43.546Z,65.28
2023-05-06T08:19:10.275Z,65.17
2023-05-06T08:21:36.696Z,65.01
2023-05-06T08:24:03.464Z,65.35
2023-05-06T08:26:30.003Z,64.38
2023-05-06T08:28:59.600Z,68.35
2023-05-06T08:31:26.020Z,65.79
2023-05-06T08:33:54.781Z,69.13
2023-05-06T08:36:22.231Z,66.86
2023-05-06T08:38:51.245Z,65.98
2023-05-06T08:41:19.751Z,65.38
2023-05-06T08:43:48.001Z,64.30
2023-05-06T08:46:14.855Z,61.58
2023-05-06T08:48:41.730Z,62.50
2023-05-06T08:51:08.839Z,64.38
2023-05-06T08:53:35.728Z,63.99
2023-05-06T08:56:04.427Z,64.01
2023-05-06T08:58:35.033Z,62.79
2023-05-06T09:01:03.332Z,59.47
2023-05-06T09:03:32.750Z,56.92
2023-05-06T09:05:59.302Z,60.79
2023-05-06T09:08:25.968Z,61.15
2023-05-06T09:10:52.754Z,62.40
2023-05-06T09:13:19.601Z,59.18
2023-05-06T09:15:47.801Z,62.60
2023-05-06T09:18:16.945Z,59.60
2023-05-06T09:20:48.549Z,57.85
2023-05-06T09:23:18.752Z,55.67
2023-05-06T09:25:46.914Z,56.06
2023-05-06T09:28:14.534Z,59.46
2023-05-06T09:30:43.266Z,54.80
2023-05-06T09:33:10.793Z,53.92
2023-05-06T09:35:41.120Z,58.00
2023-05-06T09:38:08.794Z,57.69
2023-05-06T09:40:38.983Z,54.44
2023-05-06T09:43:06.098Z,55.79
2023-05-06T09:45:33.001Z,57.03
2023-05-06T09:47:59.607Z,53.22
2023-05-06T09:50:26.689Z,54.24
2023-05-06T09:52:54.902Z,56.58
2023-05-06T09:55:23.157Z,57.93
2023-05-06T09:57:50.299Z,53.71
2023-05-06T10:00:27.913Z,49.92
2023-05-06T10:02:54.629Z,51.21
2023-05-06T10:05:22.800Z,51.76
2023-05-06T10:07:53.377Z,50.79
2023-05-06T10:10:20.549Z,48.95
2023-05-06T10:12:48.703Z,51.82
2023-05-06T10:15:15.231Z,51.92
2023-05-06T10:17:48.246Z,51.56
2023-05-06T10:20:16.406Z,49.89
2023-05-06T10:22:52.015Z,48.06
2023-05-06T10:25:28.500Z,48.43
2023-05-06T10:27:54.918Z,51.37
2023-05-06T10:30:23.131Z,48.94
2023-05-06T10:32:55.823Z,52.51
2023-05-06T10:35:36.271Z,47.79
2023-05-06T10:38:05.292Z,49.96
2023-05-06T10:40:34.575Z,48.01
2023-05-06T10:43:23.690Z,47.83
2023-05-06T10:45:59.783Z,46.86
2023-05-06T10:48:26.920Z,46.87
2023-05-06T10:51:19.873Z,46.14
2023-05-06T10:54:09.341Z,47.38
2023-05-06T10:56:38.207Z,50.53
2023-05-06T10:59:10.038Z,47.18
2023-05-06T11:01:43.859Z,45.51
2023-05-06T11:04:18.501Z,46.82
2023-05-06T11:06:46.743Z,47.51
2023-05-06T11:09:26.710Z,46.52
2023-05-06T11:12:03.176Z,45.02
2023-05-06T11:14:37.610Z,40.30
2023-05-06T11:17:28.139Z,47.33
2023-05-06T11:20:23.269Z,43.10
2023-05-06T11:22:50.227Z,43.40
2023-05-06T11:25:40.087Z,43.87
2023-05-06T11:28:17.050Z,45.05
2023-05-06T11:30:56.029Z,45.94
2023-05-06T11:33:26.090Z,47.42
2023-05-06T11:35:53.137Z,45.00
2023-05-06T11:38:19.546Z,48.95
2023-05-06T11:40:46.108Z,47.50
2023-05-06T11:43:16.970Z,45.01
2023-05-06T11:45:47.555Z,47.96
2023-05-06T11:48:15.410Z,43.58
2023-05-06T11:50:47.172Z,44.00
2023-05-06T11:53:19.039Z,49.01
2023-05-06T11:55:46.537Z,46.04
2023-05-06T11:58:24.446Z,45.85
2023-05-06T12:00:54.521Z,46.69
2023-05-06T12:03:22.173Z,46.86
2023-05-06T12:05:50.842Z,48.25
2023-05-06T12:08:27.479Z,47.27
2023-05-06T12:10:59.818Z,50.46
2023-05-06T12:13:30.069Z,50.62
2023-05-06T12:15:59.635Z,47.46
2023-05-06T12:18:30.056Z,48.20
2023-05-06T12:20:57.542Z,47.24
2023-05-06T12:23:24.038Z,45.12
2023-05-06T12:26:05.005Z,51.15
2023-05-06T12:28:33.042Z,47.18
2023-05-06T12:31:17.535Z,48.43
2023-05-06T12:33:45.384Z,45.02
2023-05-06T12:36:11.868Z,46.99
2023-05-06T12:38:38.414Z,46.75
2023-05-06T12:41:06.920Z,43.91
2023-05-06T12:43:33.397Z,43.49
2023-05-06T12:46:07.966Z,44.78
2023-05-06T12:48:34.778Z,43.25
2023-05-06T12:51:01.250Z,45.47
2023-05-06T12:53:32.922Z,48.04
2023-05-06T12:56:01.804Z,46.21
2023-05-06T12:58:30.701Z,44.25
2023-05-06T13:00:59.557Z,43.72
2023-05-06T13:03:26.764Z,45.18
2023-05-06T13:05:53.242Z,48.58
2023-05-06T13:08:20.153Z,48.31
2023-05-06T13:10:48.980Z,48.55
2023-05-06T13:13:16.569Z,44.33
2023-05-06T13:15:43.431Z,44.38
2023-05-06T13:18:09.877Z,48.56
2023-05-06T13:20:36.700Z,45.55
2023-05-06T13:23:03.811Z,44.60
2023-05-06T13:25:32.905Z,45.45
2023-05-06T13:28:02.109Z,44.15
2023-05-06T13:30:34.722Z,44.81
2023-05-06T13:33:01.259Z,44.37
2023-05-06T13:35:27.659Z,44.78
2023-05-06T13:37:54.096Z,47.52
2023-05-06T13:40:22.946Z,46.15
2023-05-06T13:42:49.287Z,44.75
2023-05-06T13:45:15.681Z,45.88
2023-05-06T13:47:42.955Z,46.54
2023-05-06T13:50:12.266Z,41.06
2023-05-06T13:52:39.028Z,43.13
2023-05-06T13:55:05.920Z,42.10
2023-05-06T13:57:32.297Z,43.09
2023-05-06T13:59:58.738Z,45.17
2023-05-06T14:02:26.445Z,43.19
2023-05-06T14:04:52.966Z,42.89
2023-05-06T14:07:19.603Z,41.20
2023-05-06T14:09:46.077Z,41.60
2023-05-06T14:12:12.425Z,42.88
2023-05-06T14:14:44.499Z,44.31
2023-05-06T14:17:11.219Z,43.39
2023-05-06T14:19:37.699Z,43.42
2023-05-06T14:22:06.526Z,44.48
2023-05-06T14:24:35.243Z,43.11
2023-05-06T14:27:04.132Z,43.11
2023-05-06T14:29:31.031Z,43.33
2023-05-06T14:31:59.688Z,44.31
2023-05-06T14:34:26.996Z,43.20
2023-05-06T14:36:56.011Z,42.51
2023-05-06T14:39:22.523Z,43.10
2023-05-06T14:41:48.948Z,42.44
2023-05-06T14:44:15.663Z,43.54
2023-05-06T14:46:42.212Z,42.51
2023-05-06T14:49:08.641Z,43.28
2023-05-06T14:51:35.140Z,44.50
2023-05-06T14:54:01.749Z,45.09
2023-05-06T14:56:30.711Z,44.17
2023-05-06T14:59:01.189Z,43.47
2023-05-06T15:01:32.214Z,43.86
2023-05-06T15:03:58.755Z,44.31
2023-05-06T15:06:25.757Z,44.03
2023-05-06T15:08:52.533Z,42.55
2023-05-06T15:11:21.551Z,43.45
2023-05-06T15:13:48.121Z,45.43
2023-05-06T15:16:14.783Z,45.01
2023-05-06T15:18:42.054Z,45.12
2023-05-06T15:21:08.612Z,45.72
2023-05-06T15:23:35.224Z,46.17
2023-05-06T15:26:03.393Z,46.68
2023-05-06T15:28:29.881Z,45.83
2023-05-06T15:30:56.283Z,44.90
2023-05-06T15:33:22.737Z,44.76
2023-05-06T15:35:49.288Z,44.36
2023-05-06T15:38:15.652Z,43.61
2023-05-06T15:40:50.226Z,43.80
2023-05-06T15:43:22.901Z,44.07
2023-05-06T15:45:49.937Z,44.01
2023-05-06T15:48:16.434Z,44.27
2023-05-06T15:50:48.042Z,44.88
2023-05-06T15:53:14.436Z,45.09
2023-05-06T15:55:44.492Z,44.53
2023-05-06T15:58:13.189Z,46.01
2023-05-06T16:00:39.706Z,44.87
2023-05-06T16:03:12.435Z,45.07
2023-05-06T16:05:39.660Z,45.29
2023-05-06T16:08:06.175Z,44.79
2023-05-06T16:10:35.632Z,43.91
2023-05-06T16:13:02.105Z,44.60
2023-05-06T16:15:31.653Z,43.62
2023-05-06T16:18:00.482Z,44.67
2023-05-06T16:20:31.491Z,44.54
2023-05-06T16:22:58.287Z,46.31
2023-05-06T16:25:27.353Z,44.83
2023-05-06T16:27:53.861Z,44.71
2023-05-06T16:30:20.495Z,45.13
2023-05-06T16:32:49.592Z,46.87
2023-05-06T16:35:20.297Z,45.32
2023-05-06T16:37:49.210Z,45.64
2023-05-06T16:40:20.634Z,44.95
2023-05-06T16:42:50.068Z,44.15
2023-05-06T16:45:16.816Z,45.80
2023-05-06T16:47:44.268Z,44.80
2023-05-06T16:50:12.133Z,46.74
2023-05-06T16:52:38.818Z,44.60
2023-05-06T16:55:06.382Z,45.61
2023-05-06T16:57:32.916Z,45.06
2023-05-06T17:00:01.803Z,45.11
2023-05-06T17:02:28.368Z,44.58
2023-05-06T17:04:57.439Z,46.54
2023-05-06T17:07:23.778Z,42.90
2023-05-06T17:09:50.619Z,44.26
2023-05-06T17:12:17.102Z,44.40
2023-05-06T17:14:43.982Z,46.53
2023-05-06T17:17:13.526Z,46.17
2023-05-06T17:19:39.999Z,46.50
2023-05-06T17:22:08.602Z,46.77
2023-05-06T17:24:37.240Z,46.65
2023-05-06T17:27:03.859Z,46.66
2023-05-06T17:29:30.266Z,47.79
2023-05-06T17:31:56.654Z,47.51
2023-05-06T17:34:23.083Z,46.23
2023-05-06T17:36:49.599Z,45.42
2023-05-06T17:39:19.218Z,45.83
2023-05-06T17:41:45.644Z,45.10
2023-05-06T17:44:18.172Z,46.26
2023-05-06T17:46:47.740Z,47.20
2023-05-06T17:49:14.291Z,47.88
2023-05-06T17:51:45.523Z,48.22
2023-05-06T17:54:12.326Z,47.80
2023-05-06T17:56:38.669Z,47.59
2023-05-06T17:59:05.484Z,48.62
2023-05-06T18:01:32.034Z,47.91
2023-05-06T18:03:58.742Z,47.38
2023-05-06T18:06:25.296Z,46.55
2023-05-06T18:08:51.649Z,47.89
2023-05-06T18:11:18.157Z,47.49
2023-05-06T18:13:44.581Z,47.96
2023-05-06T18:16:13.678Z,49.02
2023-05-06T18:18:42.888Z,48.17
2023-05-06T18:21:09.423Z,49.32
2023-05-06T18:23:35.853Z,49.24
2023-05-06T18:26:05.312Z,48.87
2023-05-06T18:28:31.950Z,49.14
2023-05-06T18:30:58.559Z,48.58
2023-05-06T18:33:24.942Z,50.96
2023-05-06T18:35:51.448Z,49.57
2023-05-06T18:38:18.183Z,50.72
2023-05-06T18:40:47.346Z,50.58
2023-05-06T18:43:13.693Z,50.85
2023-05-06T18:45:43.492Z,51.02
2023-05-06T18:48:10.866Z,51.42
2023-05-06T18:50:37.356Z,51.81
2023-05-06T18:53:06.062Z,53.13
2023-05-06T18:55:32.403Z,53.12
2023-05-06T18:57:58.867Z,52.84
2023-05-06T19:00:27.480Z,55.05
2023-05-06T19:02:56.306Z,55.91
2023-05-06T19:05:22.819Z,54.38
2023-05-06T19:07:49.327Z,55.43
2023-05-06T19:10:15.946Z,55.87
2023-05-06T19:12:45.476Z,55.16
2023-05-06T19:15:13.898Z,56.20
2023-05-06T19:17:40.302Z,56.64
2023-05-06T19:20:09.537Z,55.85
2023-05-06T19:22:40.952Z,57.01
2023-05-06T19:25:11.002Z,57.67
2023-05-06T19:27:37.632Z,58.93
2023-05-06T19:30:05.081Z,59.34
2023-05-06T19:32:34.230Z,59.88
2023-05-06T19:35:07.906Z,59.69
2023-05-06T19:37:35.393Z,59.75
2023-05-06T19:40:06.437Z,59.97
2023-05-06T19:42:33.830Z,61.08
2023-05-06T19:45:06.785Z,61.28
2023-05-06T19:47:33.145Z,62.42
2023-05-06T19:49:59.687Z,62.44
2023-05-06T19:52:30.530Z,61.91
2023-05-06T19:54:57.449Z,62.78
2023-05-06T19:57:24.001Z,63.26
2023-05-06T19:59:50.546Z,62.59
2023-05-06T20:02:16.899Z,63.90
2023-05-06T20:04:44.940Z,63.33
2023-05-06T20:07:13.015Z,63.22
2023-05-06T20:09:39.606Z,63.21
2023-05-06T20:12:11.690Z,64.45
2023-05-06T20:14:38.093Z,64.34
2023-05-06T20:17:04.451Z,65.59
2023-05-06T20:19:32.060Z,64.21
2023-05-06T20:22:00.947Z,64.41
2023-05-06T20:24:29.511Z,64.80
2023-05-06T20:26:59.185Z,66.46
2023-05-06T20:29:26.133Z,65.73
2023-05-06T20:31:52.714Z,66.76
2023-05-06T20:34:19.200Z,66.83
2023-05-06T20:36:46.599Z,66.64
2023-05-06T20:39:13.214Z,66.62
2023-05-06T20:41:41.888Z,65.90
2023-05-06T20:44:08.498Z,67.22
2023-05-06T20:46:34.961Z,67.57
2023-05-06T20:49:01.420Z,67.32
2023-05-06T20:51:28.874Z,67.81
2023-05-06T20:54:01.074Z,68.04
2023-05-06T20:56:28.428Z,66.98
2023-05-06T20:58:55.723Z,68.17
2023-05-06T21:01:23.825Z,70.05
2023-05-06T21:03:50.727Z,68.82
2023-05-06T21:06:18.622Z,68.90
2023-05-06T21:08:46.179Z,68.80
2023-05-06T21:11:15.768Z,69.11
2023-05-06T21:13:42.282Z,70.71
2023-05-06T21:16:08.640Z,69.13
2023-05-06T21:18:35.162Z,70.36
2023-05-06T21:21:01.803Z,70.61
2023-05-06T21:23:28.327Z,71.00
2023-05-06T21:25:54.733Z,70.51
2023-05-06T21:28:23.757Z,69.66
2023-05-06T21:30:52.886Z,70.73
2023-05-06T21:33:19.580Z,71.23
2023-05-06T21:35:45.967Z,70.54
2023-05-06T21:38:14.678Z,72.38
2023-05-06T21:40:43.425Z,71.16
2023-05-06T21:43:09.832Z,72.43
2023-05-06T21:45:36.433Z,72.01
2023-05-06T21:48:02.948Z,72.88
2023-05-06T21:50:29.545Z,73.16
2023-05-06T21:52:56.134Z,73.51
2023-05-06T21:55:27.668Z,73.75
2023-05-06T21:57:59.372Z,72.18
2023-05-06T22:00:25.917Z,74.43
2023-05-06T22:02:53.283Z,73.37
2023-05-06T22:05:19.899Z,74.24
2023-05-06T22:07:46.300Z,74.30
2023-05-06T22:10:13.620Z,73.32
2023-05-06T22:12:40.294Z,73.65
2023-05-06T22:15:07.480Z,73.18
2023-05-06T22:17:34.776Z,74.55
2023-05-06T22:20:06.185Z,74.18
2023-05-06T22:22:32.871Z,74.31
2023-05-06T22:25:02.628Z,76.05
2023-05-06T22:27:31.453Z,74.17
2023-05-06T22:29:57.800Z,74.80
2023-05-06T22:32:24.455Z,75.21
2023-05-06T22:34:53.530Z,74.67
2023-05-06T22:37:24.779Z,75.15
2023-05-06T22:39:52.944Z,74.40
2023-05-06T22:42:24.177Z,74.85
2023-05-06T22:44:50.571Z,75.14
2023-05-06T22:47:17.132Z,75.71
2023-05-06T22:49:46.677Z,75.60
2023-05-06T22:52:13.412Z,76.76
2023-05-06T22:54:42.562Z,76.50
2023-05-06T22:57:09.062Z,76.55
2023-05-06T22:59:35.534Z,76.61
2023-05-06T23:02:03.457Z,76.29
2023-05-06T23:04:29.862Z,75.64
2023-05-06T23:06:57.432Z,75.91
2023-05-06T23:09:23.983Z,77.97
2023-05-06T23:11:50.517Z,76.63
2023-05-06T23:14:19.439Z,78.50
2023-05-06T23:16:45.877Z,77.52
2023-05-06T23:19:12.317Z,77.17
2023-05-06T23:21:41.387Z,77.92
2023-05-06T23:24:12.843Z,79.29
2023-05-06T23:26:39.189Z,77.48
2023-05-06T23:29:05.558Z,77.95
2023-05-06T23:31:32.080Z,79.06
2023-05-06T23:33:58.563Z,79.64
2023-05-06T23:36:24.925Z,79.12
2023-05-06T23:38:56.478Z,79.89
2023-05-06T23:41:23.478Z,79.32
2023-05-06T23:43:49.932Z,79.50
2023-05-06T23:46:18.791Z,80.72
2023-05-06T23:48:45.213Z,80.72
2023-05-06T23:51:11.649Z,80.52
2023-05-06T23:53:38.450Z,81.05
2023-05-06T23:56:05.351Z,80.90
2023-05-06T23:58:36.651Z,81.41
